Bell Ranch, New Mexico
Current Conditions -  °F | °C
As of 11:53 AM on Friday 28 Nov 2014 (Local Time) from KTCC Reporting Station
Clear Clear  
Wind Chill: 78°   Ceiling: Unl
Heat Index: 78°   Visibility: 10mi
Dew Point: 15°   Wind: 22mph
Humidity: 9%   Direction: 270°W
Pressure: 29.98"   Gusts: 29mph
Location:  35.59°N, 104.11°W
Report Text: KTCC 281853Z AUTO 27019G25KT 10SM CLR 26/M09 A2998 RMK AO2 PK WND 27028/1831 SLP113 T02561094
Loading
Personal Weather Stations






























Interactive Weather Map New forecast layout! Learn more

10-Day Weather Forecast

Advertisements
Track Severe Weather on mobile